Date,TemperatureHighF,TemperatureAvgF,TemperatureLowF,DewpointHighF,DewpointAvgF,DewpointLowF,HumidityHigh,HumidityAvg,HumidityLow,PressureMaxIn,PressureMinIn,WindSpeedMaxMPH,WindSpeedAvgMPH,GustSpeedMaxMPH,PrecipitationSumIn
2013-1-1,32.4,30.3,24.2,30.6,27.1,19.8,94,88,74,30.04,29.97,5,1,0,0.01
2013-1-2,13.2,12.1,10.4,10.1,9.2,7.6,89,88,87,30.23,30.21,0,0,0,0.00
2013-1-3,32.4,18.5,2.6,22.6,12.8,-0.4,100,79,61,30.23,30.13,9,2,0,0.00
2013-1-4,31.8,28.5,25.4,23.0,20.4,17.5,80,72,63,30.25,30.15,10,6,0,0.01
2013-1-5,36.4,27.0,12.2,27.7,21.0,9.4,91,78,66,30.36,30.11,7,2,0,0.08
2013-1-6,37.3,35.1,30.8,32.7,29.4,26.1,90,80,73,30.22,29.94,6,3,0,0.07
2013-1-7,32.7,29.1,21.1,28.1,25.4,18.6,91,86,83,30.43,30.22,5,2,0,0.01
2013-1-8,42.2,27.2,16.0,32.0,22.9,13.8,94,85,65,30.33,30.22,6,1,0,0.00
2013-1-9,47.0,35.5,21.2,40.1,30.8,19.2,94,84,66,30.46,30.17,8,2,0,0.05
2013-1-10,39.2,30.6,23.6,30.6,25.9,21.6,92,84,69,30.50,30.20,0,0,0,0.01
2013-1-11,57.6,45.0,36.0,53.8,41.3,29.8,94,87,70,30.20,29.84,10,2,0,0.43
2013-1-12,61.7,55.5,41.7,57.6,53.0,40.1,94,91,82,30.00,29.82,6,2,0,0.00
2013-1-13,66.0,60.9,42.3,58.8,56.2,40.1,94,85,75,29.92,29.71,11,4,0,0.18
2013-1-14,42.0,34.3,26.0,39.8,29.5,21.4,92,83,73,30.36,29.93,6,2,0,0.00
2013-1-15,32.9,28.1,21.2,25.1,22.6,18.6,91,80,67,30.37,30.06,4,1,0,0.00
2013-1-16,35.9,32.0,29.9,29.9,27.0,23.6,93,82,73,30.07,29.87,6,2,0,0.01
2013-1-17,36.7,33.5,28.1,30.2,27.7,19.3,87,79,69,30.21,29.99,7,1,0,0.00
2013-1-18,33.9,26.9,16.6,22.7,17.2,10.7,82,67,56,30.48,30.18,9,5,0,0.00
2013-1-19,53.4,43.1,33.0,29.6,25.6,22.6,67,51,32,30.18,29.75,12,7,0,0.00
2013-1-20,47.0,32.7,23.7,34.0,19.6,13.5,67,58,48,30.13,29.72,15,6,0,0.00
2013-1-21,23.9,19.6,10.3,19.6,12.1,2.3,92,73,54,30.11,29.93,11,4,0,0.00
2013-1-22,14.3,9.2,4.2,6.0,0.9,-1.8,83,69,59,30.30,30.11,8,4,0,0.00
2013-1-23,17.7,10.0,-0.7,12.6,3.9,-4.3,88,77,54,30.32,30.07,6,2,0,0.00
2013-1-24,24.7,16.1,10.9,15.0,9.0,4.4,89,74,46,30.54,30.07,6,1,0,0.00
2013-1-25,15.0,14.0,11.7,7.4,6.7,5.9,80,72,69,30.50,30.38,3,0,0,0.00
2013-1-26,23.4,20.4,15.4,18.2,15.7,11.4,87,82,79,30.44,30.39,3,0,0,0.03
2013-1-27,31.0,21.2,4.8,24.1,15.2,1.8,98,78,65,30.52,30.25,7,1,0,0.01
2013-1-28,50.1,41.3,30.3,48.4,39.2,24.1,94,92,77,30.26,29.96,6,3,0,0.43
2013-1-29,64.0,56.0,48.7,57.6,51.9,47.1,94,87,74,30.01,29.64,10,4,0,0.05
2013-1-30,66.6,57.6,37.3,57.7,52.1,33.6,92,82,69,29.63,29.12,20,9,0,0.70
2013-1-31,37.0,26.5,20.2,33.5,20.4,13.4,93,77,64,29.85,29.28,14,8,0,0.01
2013-2-1,19.9,16.2,13.1,13.6,8.7,5.6,78,72,68,30.33,29.84,7,5,0,0.00
2013-2-2,24.5,18.3,9.8,22.0,14.3,4.6,91,84,73,30.32,29.96,8,3,0,0.00
2013-2-3,24.5,21.1,17.2,22.1,16.4,11.6,92,82,71,30.04,29.85,8,2,0,0.01
2013-2-4,25.6,20.8,13.6,23.9,17.6,9.7,93,87,79,30.06,29.84,5,2,0,0.00
2013-2-5,30.1,27.0,25.1,26.0,24.2,21.5,100,89,74,29.93,29.83,4,0,0,0.03
2013-2-6,32.7,26.4,13.2,26.4,20.4,10.5,93,79,58,30.29,29.93,5,1,0,0.09
2013-2-7,45.6,29.9,11.9,32.0,23.5,9.0,91,78,57,30.26,29.86,6,1,0,0.00
2013-2-8,40.7,32.5,25.7,37.3,28.5,20.8,93,85,79,30.21,29.72,8,3,0,0.14
2013-2-9,34.2,26.4,17.4,23.2,20.1,14.7,89,77,61,30.40,30.21,4,1,0,0.00
2013-2-10,48.7,33.3,15.0,37.2,23.8,12.6,92,70,46,30.31,29.84,14,2,0,0.01
2013-2-11,55.9,44.9,36.2,46.4,36.7,26.0,93,74,51,29.89,29.65,13,8,0,0.01
2013-2-12,43.4,34.2,24.6,29.1,25.8,22.1,90,71,54,30.06,29.87,10,3,0,0.00
2013-2-13,35.0,28.4,21.8,29.3,24.8,19.6,93,86,79,29.88,29.68,3,0,0,0.00
2013-2-14,38.5,30.9,21.5,35.1,28.5,19.4,93,91,86,29.89,29.81,9,4,0,0.00
2013-2-17,20.8,16.3,11.0,13.4,10.3,7.3,85,77,60,30.24,30.18,3,0,0,0.01
2013-2-18,47.1,18.1,6.9,33.4,12.1,4.1,90,78,57,30.27,29.77,10,3,0,0.00
2013-2-19,48.9,33.9,20.6,39.3,28.0,13.9,91,79,55,29.97,29.60,18,9,0,0.38
2013-2-20,22.6,20.0,17.7,17.6,13.5,10.2,88,76,66,30.23,29.97,10,5,0,0.00
2013-2-21,26.6,22.4,20.0,18.8,16.2,13.6,92,77,68,30.34,30.20,5,2,0,0.01
2013-2-22,41.8,32.0,22.4,39.1,27.8,16.0,93,85,75,30.27,29.91,7,1,0,0.03
2013-2-23,42.1,35.8,26.0,33.8,30.2,23.1,93,80,62,29.95,29.83,6,1,0,0.00
2013-2-24,29.5,27.7,26.0,26.3,23.7,21.2,92,85,77,30.01,29.85,5,1,0,0.00
2013-2-26,40.1,39.0,37.2,37.7,36.6,34.8,92,91,90,29.57,29.48,6,4,0,1.04
2013-2-27,41.5,38.3,33.7,39.9,35.5,29.9,94,90,83,29.63,29.46,7,4,0,0.33
2013-2-28,36.7,33.8,31.5,33.0,30.6,28.6,92,88,84,29.83,29.57,6,3,0,0.02
2013-3-1,32.1,29.6,26.4,28.9,25.3,20.8,90,84,76,29.98,29.83,7,2,0,0.01
2013-3-2,30.2,27.0,24.7,24.7,22.8,21.5,89,84,75,29.98,29.92,8,2,0,0.01
2013-3-3,28.7,25.1,22.9,22.7,19.2,15.2,89,78,67,30.02,29.94,6,2,0,0.01
2013-3-4,29.9,23.4,17.4,21.9,17.9,13.9,87,79,65,30.13,30.01,6,1,0,0.00
2013-3-5,45.1,32.6,19.4,25.2,20.8,17.0,92,66,35,30.07,29.58,5,1,0,0.00
2013-3-6,43.1,38.5,33.6,34.3,32.2,29.8,90,78,68,30.10,29.78,4,1,0,0.21
2013-3-8,32.1,26.4,24.8,29.2,23.0,21.9,90,87,84,30.41,30.30,4,0,0,0.00
2013-3-9,56.2,37.2,20.3,36.3,28.1,18.3,93,73,40,30.40,30.09,8,1,0,0.00
2013-3-10,70.3,55.6,42.8,43.6,37.5,32.3,84,53,32,30.09,29.83,9,3,0,0.01
2013-3-11,60.6,54.6,44.2,49.6,41.7,35.8,91,64,43,29.84,29.55,12,6,0,0.76
2013-3-12,44.2,37.9,33.2,38.4,31.9,29.1,88,79,70,29.95,29.71,8,4,0,0.01
2013-3-13,32.9,30.8,26.9,30.2,27.1,21.0,92,86,76,30.16,29.89,7,2,0,0.01
2013-3-14,40.6,30.1,22.4,26.1,21.0,16.4,92,70,50,30.24,30.11,9,3,0,0.01
2013-3-15,49.3,37.2,22.4,38.3,29.7,19.6,91,76,58,30.11,29.80,8,2,0,0.02
2013-3-16,42.1,38.3,31.2,39.9,36.0,28.1,93,92,88,29.96,29.57,4,1,0,0.06
2013-3-17,35.8,32.0,29.2,28.4,26.0,22.9,89,79,69,30.16,29.96,5,2,0,0.00
2013-3-18,48.5,37.7,30.2,46.6,34.5,22.9,93,88,74,30.10,29.58,8,3,0,0.74
2013-3-19,35.5,32.5,30.3,29.0,22.1,19.0,78,65,57,29.95,29.74,13,8,0,0.01
2013-3-20,36.7,30.0,23.5,22.5,19.4,16.7,84,65,50,29.95,29.84,10,4,0,0.00
2013-3-21,29.5,23.7,16.1,23.6,15.7,9.4,87,72,58,29.92,29.86,7,4,0,0.00
2013-3-22,40.2,29.5,24.3,25.1,21.1,18.4,84,71,51,30.00,29.91,7,3,0,0.00
2013-3-23,46.2,31.0,18.3,28.3,22.4,16.1,92,73,42,30.03,29.96,7,1,0,0.00
2013-3-24,38.8,33.2,27.5,30.7,24.4,22.0,83,71,57,29.97,29.43,6,1,0,0.00
2013-3-25,36.0,34.1,32.9,33.4,31.9,30.5,93,91,83,29.50,29.36,4,1,0,0.39
2013-3-27,42.3,37.8,33.3,31.9,29.2,26.0,92,72,54,30.16,30.06,7,4,0,0.00
2013-3-28,46.3,39.0,31.9,32.3,28.8,25.9,84,67,56,30.24,30.13,6,2,0,0.00
2013-3-29,53.0,39.6,26.8,33.3,28.2,23.9,92,67,37,30.24,30.14,8,1,0,0.00
2013-3-30,56.6,38.8,21.9,31.7,25.5,19.4,92,65,32,30.23,30.00,7,2,0,0.00
2013-4-1,36.9,35.1,31.9,19.1,17.9,16.5,53,49,47,30.02,29.96,4,2,0,0.00
2013-4-2,41.1,31.9,21.7,19.9,16.9,14.2,73,54,37,30.18,30.02,8,3,0,0.00
2013-4-3,42.0,31.2,19.8,22.0,17.2,12.9,87,58,37,30.38,30.17,8,2,0,0.00
2013-4-4,54.4,34.5,16.7,23.6,16.9,11.0,88,55,18,30.37,29.94,7,2,0,0.00
2013-4-5,55.2,38.1,23.0,37.1,25.5,19.0,87,63,35,30.17,29.91,8,2,0,0.00
2013-4-6,59.7,42.1,22.3,23.3,19.5,15.2,86,47,18,30.24,29.90,10,3,0,0.00
2013-4-7,73.8,61.7,49.8,48.4,38.8,17.2,69,44,25,29.93,29.80,11,6,0,0.00
2013-4-8,72.7,58.8,41.8,54.5,46.6,37.6,87,66,47,29.95,29.80,13,4,0,0.00
2013-4-9,81.5,68.5,49.2,59.6,54.3,45.5,89,62,45,30.02,29.81,10,4,0,0.00
2013-4-10,77.8,66.6,58.6,68.8,59.5,54.0,93,79,61,29.85,29.69,9,2,0,2.61
2013-4-11,66.1,59.0,55.4,61.5,56.2,53.2,94,91,84,29.82,29.47,8,2,0,0.26
2013-4-12,58.8,46.9,41.9,55.7,41.1,35.5,90,80,71,29.82,29.46,11,5,0,0.45
2013-4-13,47.8,42.8,33.6,37.4,35.2,30.1,87,75,65,30.00,29.81,9,4,0,0.00
2013-4-14,63.5,46.3,28.3,43.9,35.6,26.3,93,69,44,30.11,29.92,6,1,0,0.01
2013-4-15,67.3,58.7,46.4,54.3,48.4,39.8,86,69,58,29.99,29.88,15,5,0,0.00
2013-4-16,77.0,63.8,56.5,63.8,55.5,50.1,83,75,61,30.04,29.92,10,6,0,0.00
2013-4-17,67.0,60.6,50.6,57.2,53.0,47.3,92,76,66,30.18,29.98,7,2,0,0.00
2013-4-18,84.3,70.6,54.7,65.7,58.6,52.1,93,69,43,30.01,29.60,16,6,0,0.00
2013-4-19,74.1,70.3,65.4,60.8,57.7,55.0,85,65,54,29.60,29.33,18,12,0,0.11
2013-4-20,42.9,41.1,38.6,32.4,29.4,26.6,71,63,56,30.15,30.07,10,7,0,0.00
2013-4-21,49.0,42.9,35.5,29.8,28.0,25.6,77,57,40,30.42,30.40,0,0,0,0.00
2013-4-22,66.4,49.8,30.3,43.3,34.2,27.2,89,59,36,30.41,30.16,8,2,0,0.00
2013-4-23,72.0,56.9,36.9,46.3,38.7,27.7,85,52,35,30.17,29.83,9,3,0,0.00
2013-4-24,60.4,50.7,35.3,55.7,46.4,32.4,92,85,65,30.13,29.66,11,3,0,0.88
2013-4-25,54.9,42.0,29.2,41.8,35.0,27.1,93,78,49,30.32,30.12,10,3,0,0.02
2013-4-26,60.9,45.7,32.1,42.9,33.2,29.0,93,67,32,30.44,30.32,5,1,0,0.01
2013-4-27,72.5,54.8,32.5,44.6,37.8,30.2,92,59,27,30.33,30.05,9,2,0,0.00
2013-4-28,59.0,51.5,44.9,56.3,47.7,39.3,92,87,77,30.07,29.84,6,2,0,0.59
2013-4-29,63.4,60.4,53.0,58.6,56.4,50.6,92,87,81,29.93,29.88,6,2,0,0.05
2013-4-30,76.1,61.6,48.3,60.5,53.4,46.4,94,77,51,30.06,29.93,7,2,0,0.01
2013-5-1,78.8,66.3,51.0,61.0,54.0,46.5,91,67,45,30.20,30.06,8,2,0,0.00
2013-5-2,77.2,65.2,47.7,55.2,47.7,40.3,83,55,41,30.24,30.08,10,2,0,0.00
2013-5-3,78.0,66.0,49.8,47.6,43.5,39.1,78,46,27,30.13,29.98,10,4,0,0.00
2013-5-4,71.1,59.4,51.3,47.4,40.5,34.1,64,50,34,30.09,30.00,8,3,0,0.00
2013-5-5,75.5,68.7,60.6,36.1,30.9,27.0,35,25,20,29.94,29.89,7,2,0,0.00
2013-5-6,73.5,63.2,53.3,54.6,47.1,31.9,72,56,34,29.97,29.88,7,2,0,0.00
2013-5-7,69.0,61.9,56.4,59.2,55.3,51.9,91,79,65,29.94,29.88,8,1,0,0.03
2013-5-8,72.7,63.8,56.2,56.9,54.2,50.3,91,73,47,29.91,29.84,4,1,0,0.03
2013-5-9,81.6,66.3,55.1,59.5,55.4,49.4,93,72,35,29.93,29.85,7,1,0,0.02
2013-5-10,69.5,61.0,57.2,63.1,57.7,53.8,92,89,80,29.90,29.81,7,3,0,0.12
2013-5-11,53.5,51.9,47.8,49.6,47.5,43.1,88,85,82,29.83,29.76,10,2,0,0.09
2013-5-12,50.1,42.6,35.6,43.4,36.4,30.6,89,79,51,29.92,29.83,9,3,0,0.00
2013-5-13,54.1,45.5,35.7,32.3,31.0,28.7,82,59,39,30.13,30.08,3,1,0,0.00
2013-5-14,38.7,33.1,30.4,34.2,30.1,27.5,91,89,82,30.13,30.10,0,0,0,0.00
2013-5-15,85.6,79.1,62.1,65.1,61.6,57.2,84,56,44,29.72,29.64,9,5,0,0.00
2013-5-20,69.7,68.4,66.6,66.6,65.4,64.5,93,90,89,29.92,29.91,6,4,0,0.00
2013-5-22,84.5,76.5,65.1,68.2,65.2,61.8,89,69,51,29.78,29.66,11,7,0,0.00
2013-5-23,69.8,53.4,45.1,60.4,49.1,42.1,91,86,68,29.94,29.72,7,3,0,0.31
2013-5-24,50.1,44.8,35.7,42.0,37.8,32.9,91,77,60,30.27,29.94,7,3,0,0.00
2013-5-25,63.2,45.6,31.7,42.5,36.3,29.6,93,74,39,30.34,30.22,5,2,0,0.01
2013-5-26,67.7,52.1,33.4,42.3,37.6,31.3,93,63,32,30.28,30.17,4,1,0,0.00
2013-5-27,59.5,54.8,49.2,52.1,47.7,43.8,86,77,72,30.20,30.00,2,0,0,0.04
2013-5-28,82.2,66.2,54.6,68.5,59.8,51.6,93,81,60,30.00,29.86,10,2,0,0.43
2013-5-29,85.8,76.0,66.0,68.0,63.7,60.1,88,67,50,29.99,29.90,10,4,0,0.00
2013-5-30,66.0,63.9,61.6,62.7,61.0,59.3,92,90,89,30.04,29.98,0,0,0,0.00
2013-6-1,83.2,81.1,72.4,70.9,70.2,68.3,87,70,66,29.77,29.71,10,8,0,0.10
2013-6-8,72.6,67.9,57.5,60.4,57.7,54.6,92,71,59,30.03,29.93,5,1,0,0.00
2013-6-9,81.4,69.2,56.7,67.9,62.2,54.3,93,80,61,30.08,29.91,7,1,0,0.01
2013-6-10,72.0,68.4,66.5,68.7,66.0,64.4,93,92,88,29.92,29.70,6,2,0,0.21
2013-6-13,73.0,72.1,70.5,62.3,60.8,58.1,74,68,61,29.66,29.64,5,3,0,0.07
2013-6-22,76.4,74.0,72.5,70.1,69.2,68.4,87,85,81,30.02,30.00,0,0,0,0.00
2013-6-23,88.3,77.6,65.6,73.3,68.4,63.5,94,75,49,30.06,29.94,8,2,0,0.00
2013-6-24,87.2,76.3,63.3,71.1,67.1,61.1,93,75,54,30.06,29.91,6,1,0,0.00
2013-6-25,88.1,77.5,68.5,77.5,70.6,65.9,92,80,64,29.96,29.78,9,2,0,1.06
2013-6-26,81.4,73.7,67.6,73.8,69.3,65.5,94,86,74,29.87,29.71,6,2,0,0.44
2013-6-27,80.1,72.6,67.8,72.5,68.9,66.0,94,88,73,29.72,29.55,2,0,0,0.02
2013-6-28,81.6,70.5,62.8,71.5,66.3,60.4,94,87,62,29.56,29.42,9,1,0,0.32
2013-6-29,76.0,67.3,60.5,68.3,63.6,58.8,94,88,75,29.61,29.47,5,1,0,0.07
2013-6-30,80.2,69.7,62.3,69.8,65.5,60.6,96,87,66,29.78,29.61,5,0,0,0.08
2013-7-1,77.8,68.7,65.2,71.6,66.1,63.1,94,91,78,29.87,29.75,3,0,0,0.14
2013-7-2,81.8,73.2,66.1,72.2,68.1,64.3,94,85,69,29.97,29.85,6,2,0,0.01
2013-7-3,79.0,71.1,68.1,73.1,68.4,66.0,94,91,79,30.06,29.96,5,1,0,0.00
2013-7-4,75.8,73.3,71.4,70.5,69.9,69.5,94,89,82,30.07,30.05,2,0,0,0.00
2013-7-5,79.0,72.3,68.6,73.0,69.8,66.8,94,92,80,30.09,30.01,5,1,0,0.14
2013-7-6,85.1,76.0,69.0,75.8,71.0,67.2,95,85,68,30.08,29.93,7,2,0,0.00
2013-7-7,78.9,72.9,68.1,70.4,67.3,65.1,92,83,71,30.03,29.92,4,1,0,0.00
2013-7-8,83.9,73.0,62.0,73.9,67.6,59.9,94,84,68,30.04,29.96,5,1,0,0.01
2013-7-9,86.0,74.3,69.7,78.5,71.5,67.9,94,91,76,30.01,29.86,5,2,0,0.51
2013-7-10,87.3,74.6,66.3,80.0,71.3,64.5,95,90,72,29.91,29.71,8,2,0,0.16
2013-7-11,78.0,69.8,59.1,66.2,62.7,56.5,95,79,58,29.95,29.84,4,1,0,0.04
2013-7-12,77.3,67.3,56.0,66.4,61.3,54.3,94,82,61,30.04,29.95,4,1,0,0.00
2013-7-13,83.4,73.0,61.7,71.3,66.3,60.0,94,81,62,30.13,30.02,4,1,0,0.00
2013-7-14,88.1,77.4,66.2,75.8,70.6,64.4,94,81,62,30.18,30.11,8,2,0,0.01
2013-7-15,90.9,79.6,68.0,76.3,71.7,66.2,94,79,55,30.25,30.15,3,0,0,0.00
2013-7-16,91.7,79.7,69.5,78.4,74.0,67.7,94,84,60,30.24,30.16,4,0,0,0.00
2013-7-17,91.7,81.7,71.5,79.2,74.8,69.7,95,81,60,30.22,30.06,2,0,0,0.02
2013-7-18,92.5,82.1,71.7,79.4,75.2,69.9,94,81,61,30.10,29.93,2,0,0,0.00
2013-7-19,90.7,78.6,71.5,77.6,73.2,69.7,95,84,62,29.94,29.78,8,1,0,0.00
2013-7-20,80.1,74.4,70.6,72.7,70.5,67.8,94,88,73,29.84,29.74,7,1,0,0.14
2013-7-21,84.7,75.2,69.5,74.3,70.3,67.3,94,85,64,29.88,29.82,4,0,0,0.00
2013-7-22,74.6,69.9,67.1,72.4,67.9,65.3,94,94,92,29.87,29.68,1,0,0,0.66
2013-7-23,81.7,71.5,65.4,75.0,67.9,63.6,95,89,74,29.72,29.58,6,1,0,0.60
2013-7-25,71.7,62.9,56.8,58.7,56.7,54.4,92,81,61,30.03,29.99,0,0,0,0.00
2013-7-26,78.4,66.0,51.3,63.4,57.6,49.6,95,77,51,30.04,29.91,5,0,0,0.00
2013-7-27,71.2,66.1,61.5,67.8,63.6,59.4,95,92,85,29.91,29.75,5,1,0,0.09
2013-7-28,70.4,63.8,56.4,62.7,56.9,53.0,95,79,54,29.96,29.77,2,0,0,0.00
2013-7-29,72.3,63.2,51.9,59.6,55.6,49.9,95,78,56,30.13,29.96,3,0,0,0.00
2013-7-30,78.4,64.9,50.8,64.3,57.8,49.1,95,80,55,30.18,30.08,3,0,0,0.00
2013-7-31,75.2,66.4,58.5,67.9,63.2,56.8,95,90,75,30.09,29.87,3,0,0,0.04
2013-8-1,80.7,71.9,63.1,68.4,65.0,60.3,95,80,55,29.87,29.78,1,0,0,0.05
2013-8-2,74.8,65.8,55.1,64.4,59.0,53.6,95,80,58,29.94,29.84,3,0,0,0.00
2013-8-3,80.3,70.4,57.8,68.4,62.5,55.1,95,78,55,29.93,29.87,4,0,0,0.44
2013-8-4,74.8,64.5,53.6,63.3,57.1,51.8,95,79,55,30.05,29.92,4,1,0,0.00
2013-8-9,63.4,63.1,62.5,61.0,60.8,60.5,94,92,91,29.95,29.93,0,0,0,0.51
2013-8-10,80.9,71.0,61.1,70.9,64.7,59.4,95,82,63,30.03,29.95,1,0,0,0.03
2013-11-17,61.6,58.3,53.0,58.7,51.3,42.3,93,78,67,29.58,29.41,16,9,0,0.75
2013-11-18,53.0,45.8,37.2,42.7,36.1,27.2,83,69,55,30.06,29.58,12,6,0,0.00
2013-11-19,40.6,34.3,23.9,29.4,26.5,21.4,90,73,59,30.37,30.06,3,1,0,0.00
2013-11-20,47.5,31.9,20.9,28.7,22.6,18.8,94,72,36,30.41,30.28,8,1,0,0.00
2013-11-21,54.7,43.0,27.7,43.5,35.0,23.1,89,74,55,30.37,30.15,6,1,0,0.14
2013-11-22,53.0,47.1,35.9,51.3,44.6,31.1,94,91,82,30.27,30.04,6,2,0,0.15
2013-11-23,38.2,29.0,20.3,31.3,23.6,11.1,92,80,60,30.40,30.17,8,2,0,0.00
2013-11-24,24.6,18.6,12.0,15.4,11.3,8.3,88,73,56,30.55,30.39,7,2,0,0.00
2013-11-25,35.1,23.6,11.4,28.9,15.0,8.7,92,72,46,30.50,30.18,9,3,0,0.00
2013-11-26,33.2,31.8,30.2,32.0,29.8,28.4,100,92,90,30.19,29.79,3,0,0,0.07
2013-11-27,31.2,30.3,28.5,30.9,28.6,26.1,100,93,91,29.85,29.75,0,0,0,0.00
2013-11-30,40.2,30.3,22.1,29.6,24.7,19.9,92,80,64,30.28,30.17,6,1,0,0.04
2013-12-1,40.2,31.8,21.5,34.0,27.8,19.8,94,85,70,30.18,29.93,5,1,0,0.02
2013-12-2,41.6,35.4,29.8,36.8,32.6,27.5,93,90,83,29.93,29.81,3,0,0,0.00
2013-12-3,53.9,40.9,33.3,45.3,37.3,31.5,94,88,68,29.88,29.80,6,1,0,0.03
2013-12-4,59.3,47.0,34.9,51.4,43.0,33.3,95,86,72,29.92,29.75,6,1,0,0.00
2013-12-5,61.7,53.4,35.1,59.6,49.0,32.7,94,85,70,30.05,29.73,8,4,0,0.27
2013-12-6,35.0,31.3,27.2,32.9,29.5,25.7,94,93,89,30.29,30.01,5,1,0,0.13
2013-12-7,27.2,21.9,12.1,25.7,17.7,9.5,99,84,71,30.58,30.28,5,1,0,0.14
2013-12-8,21.3,16.4,12.0,16.8,13.6,9.6,92,89,80,30.57,30.42,2,0,0,0.00